Ann Arbor, MI

2:04 AM EDT on March 31, 2015 (GMT -0400)
Walker Briar Works | | Change Station
CLOSE
Current Station
Personal Weather Station
Location: Ann Arbor, MI
Elevation: 961 ft
Nearby Weather Stations

Elev 961 ft 42.26 °N, 83.77 °W | Updated 4 minutes ago

Rain
Rain
38.1 °F
Feels Like 38 °F
N
0.7
Wind Variable Wind from East
Gusts 3.1 mph

Today
High -- | Low -- °F
--% Chance of Precip.
Yesterday
High -- | Low -- °F
Precip. -- in
7:19 AM 7:59 PM
Waxing Gibbous, 84% visible
Pressure 29.88 in
Visibility 8.0 miles
Clouds Few 3500 ft
Mostly Cloudy 4400 ft
Overcast 5500 ft
Windchill 38 °F
Dew Point 36 °F
Humidity 92%
Rainfall 0.09 in
Snow Depth Not available.
UV 0 out of 12
Pollen 5.80 out of 12
Air Quality Not available.
Flu Activity Not available.
METAR KARB 310553Z AUTO 09007KT 8SM -RA FEW035 BKN044 OVC055 03/01 A2987 RMK AO2 SLP117 P0010 60012 T00280011 10100 20028 58027

More Conditions Fewer Conditions

Pressure 29.88 in
Visibility 8.0 miles
Clouds Few 3500 ft
Mostly Cloudy 4400 ft
Overcast 5500 ft
Windchill 38 °F
Dew Point 36 °F
Humidity 92%
Rainfall 0.09 in
Snow Depth Not available.
UV 0 out of 12
Pollen 5.80 out of 12
Air Quality Not available.
Flu Activity Not available.
METAR KARB 310553Z AUTO 09007KT 8SM -RA FEW035 BKN044 OVC055 03/01 A2987 RMK AO2 SLP117 P0010 60012 T00280011 10100 20028 58027

More Conditions Fewer Conditions

10-Day Weather Forecast

Almanac

Astronomy

Mar. 31, 2015 Rise Set
Actual Time
Civil Twilight
Nautical Twilight
Astronomical Twilight
Moon
Length of Visible Light
Length of Day
Tomorrow will be .
, % of the Moon is Illuminated

Today's Extremes

State Highs State Lows

Community

WunderPhotos

Upload Photos

1,809,724 photos uploaded!

WunderBlogs® & News

Nearby

Air Quality

  Air Quality AQ Index Pollutant
Not available.

Snow Depth

Station Depth Elevation

Earthquake Activity

City Distance Mag. Time & Date
Minimum magnitude displayed is 2.5.

Coastal Water Temperatures

Place Temperature

Stations

Nearby Weather Stations

Station Location Temp. Windchill Dew Point Humidity Wind Precip. Elev Updated Type